Time;durP1;ratioP1;P1;durP2;ratioP2;P2;SDS_P1;SDS_P2;PMS_P1;PMS_P2;Temp;Humidity;BMP_temperature;BMP_pressure;BME280_temperature;BME280_humidity;BME280_pressure;Samples;Min_cycle;Max_cycle;Signal;HPM_P1;HPM_P2
2021/12/17 00:01:37;;;;;;;0.10;0.10;;;;;;;11.68;66.72;103439.06;7363351;19;20014;-58
2021/12/17 00:04:14;;;;;;;0.00;0.00;;;;;;;11.70;66.45;103442.56;7364300;19;20074;-59
2021/12/17 00:06:47;;;;;;;0.00;0.00;;;;;;;11.61;66.52;103417.16;7366334;19;20042;-59
2021/12/17 00:09:13;;;;;;;0.00;0.00;;;;;;;11.68;66.39;103428.59;7364221;19;20084;-58
2021/12/17 00:11:38;;;;;;;0.00;0.00;;;;;;;11.68;66.41;103433.81;7365723;19;20086;-59
2021/12/17 00:14:04;;;;;;;0.10;0.10;;;;;;;11.68;66.19;103434.72;7361435;19;20610;-57
2021/12/17 00:16:35;;;;;;;0.00;0.00;;;;;;;11.66;66.62;103432.94;7364115;19;20025;-57
2021/12/17 00:48:51;;;;;;;0.00;0.00;;;;;;;11.52;66.16;103417.00;7362207;19;20060;-57
2021/12/17 00:53:51;;;;;;;0.10;0.10;;;;;;;11.54;65.80;103415.25;7362434;19;20006;-59
2021/12/17 00:56:17;;;;;;;0.00;0.00;;;;;;;11.48;66.00;103407.31;7361323;19;20865;-59
2021/12/17 00:58:42;;;;;;;0.00;0.00;;;;;;;11.56;66.17;103421.44;7361212;19;20010;-57
2021/12/17 01:01:08;;;;;;;0.00;0.00;;;;;;;11.57;65.88;103430.16;7360324;19;20014;-57
2021/12/17 01:03:34;;;;;;;0.10;0.10;;;;;;;11.59;66.23;103431.94;7364064;19;20010;-58
2021/12/17 01:06:01;;;;;;;0.00;0.00;;;;;;;11.59;66.00;103429.31;7361694;19;20015;-58
2021/12/17 01:08:26;;;;;;;0.00;0.00;;;;;;;11.60;66.30;103435.44;7360853;19;20060;-58
2021/12/17 01:10:54;;;;;;;0.10;0.10;;;;;;;11.59;66.44;103431.94;7359941;19;20019;-58
2021/12/17 01:13:21;;;;;;;0.05;0.05;;;;;;;11.59;66.14;103429.31;7363159;19;20419;-59
2021/12/17 01:15:47;;;;;;;0.10;0.10;;;;;;;11.60;66.15;103430.19;7361596;19;20030;-56
2021/12/17 01:18:17;;;;;;;0.00;0.00;;;;;;;11.59;66.26;103429.31;7362754;19;20009;-58
2021/12/17 01:36:39;;;;;;;0.00;0.00;;;;;;;11.56;66.24;103426.66;7363204;19;20022;-58
2021/12/17 01:43:58;;;;;;;0.08;0.08;;;;;;;11.57;66.21;103424.91;7362899;19;20030;-57
2021/12/17 01:46:27;;;;;;;0.10;0.10;;;;;;;11.57;66.29;103420.56;7359266;19;20014;-59
2021/12/17 01:55:44;;;;;;;0.00;0.00;;;;;;;11.56;66.12;103421.44;7360732;19;20371;-59
2021/12/17 02:00:12;;;;;;;0.10;0.10;;;;;;;11.62;66.76;103428.50;7355124;19;20013;-58
2021/12/17 02:02:44;;;;;;;0.00;0.00;;;;;;;11.60;66.50;103428.44;7362730;19;20024;-58
2021/12/17 02:05:10;;;;;;;0.08;0.08;;;;;;;11.58;66.01;103426.69;7357291;19;20478;-58
2021/12/17 02:07:36;;;;;;;0.10;0.10;;;;;;;11.57;65.95;103431.03;7360635;19;20038;-58
2021/12/17 02:12:41;;;;;;;0.10;0.10;;;;;;;11.56;66.29;103434.50;7362527;19;20447;-58
2021/12/17 02:28:43;;;;;;;0.00;0.00;;;;;;;11.55;66.21;103437.97;7359025;19;20014;-59
2021/12/17 02:29:11;;;;;;;0.10;0.10;;;;;;;11.51;66.49;103438.78;7360400;19;20123;-58
2021/12/17 02:31:37;;;;;;;0.00;0.00;;;;;;;11.51;66.33;103438.78;7362273;19;20011;-59
2021/12/17 02:34:17;;;;;;;0.00;0.00;;;;;;;11.40;66.38;103424.63;7362054;19;20078;-59
2021/12/17 02:36:44;;;;;;;0.00;0.00;;;;;;;11.50;66.49;103439.63;7359885;19;20002;-58
2021/12/17 02:47:10;;;;;;;0.03;0.03;;;;;;;11.33;66.66;103422.75;7351197;19;21479;-58
2021/12/17 02:49:38;;;;;;;0.03;0.03;;;;;;;11.49;66.18;103453.56;7365613;19;20011;-58
2021/12/17 02:52:05;;;;;;;0.00;0.00;;;;;;;11.49;66.26;103450.94;7366795;19;20010;-58
2021/12/17 02:54:33;;;;;;;0.05;0.05;;;;;;;11.45;66.17;103446.50;7361159;19;20026;-59
2021/12/17 02:56:59;;;;;;;0.10;0.10;;;;;;;11.46;66.32;103442.19;7364630;19;20035;-56
2021/12/17 02:59:25;;;;;;;0.08;0.08;;;;;;;11.47;66.04;103443.94;7350025;19;20490;-58
2021/12/17 03:01:51;;;;;;;0.05;0.05;;;;;;;11.42;66.54;103436.88;7363669;19;20010;-58
2021/12/17 03:04:19;;;;;;;0.00;0.00;;;;;;;11.45;66.54;103438.66;7360349;19;20062;-57
2021/12/17 03:06:45;;;;;;;0.03;0.03;;;;;;;11.39;66.63;103435.94;7362139;19;20006;-59
2021/12/17 03:09:11;;;;;;;0.10;0.10;;;;;;;11.43;66.13;103443.88;7361963;19;20078;-58
2021/12/17 03:11:37;;;;;;;0.00;0.00;;;;;;;11.43;66.50;103443.00;7364536;19;20006;-58
2021/12/17 03:14:03;;;;;;;0.00;0.00;;;;;;;11.43;66.66;103443.00;7354626;19;20006;-58
2021/12/17 03:16:40;;;;;;;0.10;0.10;;;;;;;11.41;66.68;103440.38;7363929;19;20007;-59
2021/12/17 03:24:47;;;;;;;0.00;0.00;;;;;;;11.44;66.81;103444.75;7358890;19;20041;-58
2021/12/17 03:27:13;;;;;;;0.00;0.00;;;;;;;11.43;66.25;103449.09;7357752;19;20010;-59
2021/12/17 03:29:38;;;;;;;0.00;0.00;;;;;;;11.43;66.83;103438.63;7361233;19;20034;-58
2021/12/17 03:32:04;;;;;;;0.00;0.00;;;;;;;11.44;66.80;103439.50;7360469;19;20716;-59
2021/12/17 03:34:30;;;;;;;0.10;0.10;;;;;;;11.43;66.41;103443.00;7367620;19;20010;-59
2021/12/17 03:36:57;;;;;;;0.00;0.00;;;;;;;11.44;66.73;103436.91;7365674;19;20091;-59
2021/12/17 03:39:25;;;;;;;0.00;0.00;;;;;;;11.44;66.69;103435.16;7365989;19;20018;-57
2021/12/17 03:41:52;;;;;;;0.10;0.10;;;;;;;11.44;66.62;103434.28;7364506;19;20025;-58
2021/12/17 03:44:19;;;;;;;0.00;0.00;;;;;;;11.33;66.59;103417.53;7364707;19;20458;-59
2021/12/17 03:46:46;;;;;;;0.00;0.00;;;;;;;11.44;66.44;103423.81;7366433;19;20038;-58
2021/12/17 03:49:14;;;;;;;0.00;0.00;;;;;;;11.45;66.13;103428.19;7363748;19;20014;-58
2021/12/17 03:52:24;;;;;;;0.00;0.00;;;;;;;11.42;66.48;103422.91;7367200;19;20015;-59
2021/12/17 03:54:25;;;;;;;0.10;0.10;;;;;;;11.44;66.64;103431.66;7363778;19;20479;-59
2021/12/17 03:56:52;;;;;;;0.00;0.00;;;;;;;11.44;66.46;103429.06;7367936;19;20006;-58
2021/12/17 03:59:18;;;;;;;0.00;0.00;;;;;;;11.42;66.26;103421.19;7362073;19;20012;-58
2021/12/17 04:01:43;;;;;;;0.10;0.10;;;;;;;11.43;66.20;103422.06;7370455;19;20006;-58
2021/12/17 04:04:08;;;;;;;0.00;0.00;;;;;;;11.34;66.35;103411.44;7364134;19;20043;-58
2021/12/17 04:06:35;;;;;;;0.00;0.00;;;;;;;11.44;66.25;103431.66;7362235;19;20013;-59
2021/12/17 04:09:00;;;;;;;0.00;0.00;;;;;;;11.44;65.88;103431.66;7362049;19;20018;-59
2021/12/17 04:11:26;;;;;;;0.00;0.00;;;;;;;11.43;66.09;103427.28;7368603;19;20006;-60
2021/12/17 04:13:54;;;;;;;0.00;0.00;;;;;;;11.43;66.12;103427.28;7365156;19;20470;-58
2021/12/17 04:16:25;;;;;;;0.00;0.00;;;;;;;11.40;66.40;103424.63;7368940;19;20018;-59
2021/12/17 04:18:50;;;;;;;0.10;0.10;;;;;;;11.32;66.24;103418.38;7360444;19;20118;-57
2021/12/17 04:21:16;;;;;;;0.00;0.00;;;;;;;11.41;65.92;103434.25;7364286;19;20077;-59
2021/12/17 04:23:43;;;;;;;0.05;0.05;;;;;;;11.40;65.89;103432.47;7365305;19;20007;-58
2021/12/17 04:26:09;;;;;;;0.00;0.00;;;;;;;11.39;66.26;103433.31;7366013;19;20014;-58
2021/12/17 04:28:40;;;;;;;0.10;0.10;;;;;;;11.38;65.93;103428.94;7367807;19;20417;-59
2021/12/17 04:31:06;;;;;;;0.00;0.00;;;;;;;11.37;66.18;103432.44;7363552;19;20021;-58
2021/12/17 04:33:31;;;;;;;0.00;0.00;;;;;;;11.37;66.04;103442.91;7368803;19;20014;-59
2021/12/17 04:35:57;;;;;;;0.00;0.00;;;;;;;11.35;65.99;103440.25;7367051;19;20007;-59
2021/12/17 04:38:25;;;;;;;0.00;0.00;;;;;;;11.35;66.23;103440.25;7367443;19;20017;-58
2021/12/17 04:40:52;;;;;;;0.00;0.00;;;;;;;11.35;66.03;103444.56;7368292;19;20014;-59
2021/12/17 04:43:35;;;;;;;0.00;0.00;;;;;;;11.34;66.08;103443.69;7367320;19;20060;-57
2021/12/17 04:46:16;;;;;;;0.00;0.00;;;;;;;11.33;66.05;103446.31;7363969;19;20463;-58
2021/12/17 04:59:38;;;;;;;0.00;0.00;;;;;;;11.30;65.76;103454.06;7367262;19;20102;-58
2021/12/17 05:02:04;;;;;;;0.00;0.00;;;;;;;11.30;65.98;103451.47;7371051;19;20403;-57
2021/12/17 05:04:29;;;;;;;0.00;0.00;;;;;;;11.31;66.27;103448.03;7365890;19;20106;-58
2021/12/17 05:06:55;;;;;;;0.03;0.03;;;;;;;11.29;65.89;103440.13;7367386;19;20010;-57
2021/12/17 05:09:30;;;;;;;0.00;0.00;;;;;;;11.27;66.54;103441.84;7365044;19;20018;-58
2021/12/17 05:19:58;;;;;;;0.00;0.00;;;;;;;11.28;65.63;103458.41;7361254;19;20018;-58
2021/12/17 05:22:25;;;;;;;0.00;0.00;;;;;;;11.28;65.66;103447.94;7367046;19;20494;-57
2021/12/17 05:24:51;;;;;;;0.08;0.08;;;;;;;11.26;65.96;103444.44;7365397;19;20010;-58
2021/12/17 05:27:18;;;;;;;0.00;0.00;;;;;;;11.26;65.79;103444.44;7366592;19;20472;-59
2021/12/17 05:29:43;;;;;;;0.00;0.00;;;;;;;11.25;65.96;103447.88;7367821;19;20010;-58
2021/12/17 05:32:09;;;;;;;0.10;0.10;;;;;;;11.23;65.59;103445.25;7364376;19;20006;-59
2021/12/17 05:34:34;;;;;;;0.10;0.10;;;;;;;11.22;65.75;103443.50;7368276;19;20018;-58
2021/12/17 05:37:00;;;;;;;0.00;0.00;;;;;;;11.23;65.72;103449.59;7366726;19;20364;-59
2021/12/17 05:39:25;;;;;;;0.00;0.00;;;;;;;11.23;66.25;103449.59;7366155;19;20700;-59
2021/12/17 05:41:52;;;;;;;0.00;0.00;;;;;;;11.22;66.09;103448.72;7366042;19;20018;-57
2021/12/17 05:44:18;;;;;;;0.00;0.00;;;;;;;11.15;65.67;103436.38;7346780;19;20003;-58
2021/12/17 05:46:50;;;;;;;0.05;0.05;;;;;;;11.21;65.81;103440.84;7364534;19;20014;-59
2021/12/17 05:49:23;;;;;;;0.10;0.10;;;;;;;11.25;66.14;103447.88;7368109;19;20017;-59
2021/12/17 05:51:48;;;;;;;0.00;0.00;;;;;;;11.14;65.85;103432.00;7362744;19;20011;-58
2021/12/17 05:54:15;;;;;;;0.00;0.00;;;;;;;11.21;65.91;103443.47;7365790;19;20002;-58
2021/12/17 05:56:41;;;;;;;0.00;0.00;;;;;;;11.12;66.11;103426.75;7364666;19;20015;-58
2021/12/17 05:59:07;;;;;;;0.00;0.00;;;;;;;11.18;66.04;103439.94;7367177;19;20014;-57
2021/12/17 06:01:33;;;;;;;0.10;0.10;;;;;;;11.21;66.27;103446.97;7367344;19;20014;-58
2021/12/17 06:03:58;;;;;;;0.00;0.00;;;;;;;11.20;65.83;103445.19;7364867;19;20010;-59
2021/12/17 06:06:26;;;;;;;0.10;0.10;;;;;;;11.21;65.86;103446.97;7366670;19;20014;-58
2021/12/17 06:08:52;;;;;;;;;;;;;;;11.25;66.73;103447.88;7367090;19;20058;-58
2021/12/17 06:11:17;;;;;;;0.00;0.00;;;;;;;11.21;65.73;103446.97;7363993;19;19926;-58
2021/12/17 06:13:43;;;;;;;0.00;0.00;;;;;;;11.20;66.26;103446.91;7363708;19;20014;-59
2021/12/17 06:16:08;;;;;;;0.10;0.10;;;;;;;11.18;66.13;103453.00;7367126;19;20039;-58
2021/12/17 06:18:33;;;;;;;0.00;0.00;;;;;;;11.16;65.83;103443.38;7367357;19;20018;-59
2021/12/17 06:20:59;;;;;;;0.00;0.00;;;;;;;11.16;66.41;103449.50;7359965;19;20017;-59
2021/12/17 06:23:24;;;;;;;0.00;0.00;;;;;;;11.14;66.01;103445.94;7367760;19;20052;-58
2021/12/17 06:25:50;;;;;;;0.00;0.00;;;;;;;11.14;66.06;103448.56;7363617;19;20010;-58
2021/12/17 06:28:16;;;;;;;0.00;0.00;;;;;;;11.13;66.27;103449.41;7366693;19;20010;-59
2021/12/17 06:30:42;;;;;;;0.03;0.03;;;;;;;11.02;66.39;103430.03;7361288;19;20006;-59
2021/12/17 06:33:08;;;;;;;0.00;0.00;;;;;;;10.99;66.21;103429.09;7366019;19;20025;-59
2021/12/17 06:35:34;;;;;;;0.10;0.10;;;;;;;11.12;66.11;103458.13;7361068;19;20030;-57
2021/12/17 06:37:59;;;;;;;0.00;0.00;;;;;;;11.10;66.45;103457.22;7366265;19;20020;-58
2021/12/17 06:40:25;;;;;;;0.00;0.00;;;;;;;11.08;66.70;103456.31;7366373;19;20022;-57
2021/12/17 06:42:51;;;;;;;0.00;0.00;;;;;;;11.10;66.22;103456.31;7364951;19;20094;-58
2021/12/17 06:45:35;;;;;;;0.00;0.00;;;;;;;11.08;66.14;103453.69;7360391;19;20038;-59
2021/12/17 06:48:00;;;;;;;0.00;0.00;;;;;;;11.09;66.27;103463.28;7362358;19;20035;-58
2021/12/17 07:05:49;;;;;;;0.00;0.00;;;;;;;11.05;66.53;103461.50;7363644;19;20111;-58
2021/12/17 07:10:15;;;;;;;0.00;0.00;;;;;;;11.00;66.32;103457.91;7362094;19;20006;-59
2021/12/17 07:32:51;;;;;;;0.10;0.10;;;;;;;10.95;66.73;103472.63;7361958;19;20018;-58
2021/12/17 07:40:33;;;;;;;0.10;0.10;;;;;;;10.95;66.17;103480.47;7361498;19;20009;-58
2021/12/17 07:43:02;;;;;;;0.00;0.00;;;;;;;10.95;66.35;103480.47;7361733;19;20011;-58
2021/12/17 07:45:28;;;;;;;0.10;0.10;;;;;;;10.92;66.07;103480.38;7357904;19;20034;-58
2021/12/17 07:47:54;;;;;;;0.03;0.03;;;;;;;10.90;65.84;103482.09;7356428;19;20733;-58
2021/12/17 07:50:19;;;;;;;0.10;0.10;;;;;;;10.88;66.01;103478.56;7355278;19;20023;-59
2021/12/17 07:52:45;;;;;;;0.10;0.10;;;;;;;10.88;66.18;103481.16;7361519;19;20027;-58
2021/12/17 07:55:11;;;;;;;0.00;0.00;;;;;;;10.86;66.13;103477.66;7356034;19;20058;-59
2021/12/17 07:57:36;;;;;;;0.08;0.08;;;;;;;10.84;66.04;103487.19;7356880;19;20018;-58
2021/12/17 08:00:05;;;;;;;0.00;0.00;;;;;;;10.86;66.11;103482.88;7356158;19;20074;-58
2021/12/17 08:02:30;;;;;;;0.05;0.05;;;;;;;10.85;66.31;103489.84;7359144;19;20034;-58
2021/12/17 08:04:56;;;;;;;0.00;0.00;;;;;;;10.85;66.23;103483.75;7358152;19;20010;-58
2021/12/17 08:07:21;;;;;;;0.10;0.10;;;;;;;10.85;66.29;103478.50;7351776;19;20022;-57
2021/12/17 08:09:47;;;;;;;0.10;0.10;;;;;;;10.80;66.10;103474.91;7362934;19;20006;-59
2021/12/17 08:12:12;;;;;;;0.00;0.00;;;;;;;10.76;66.20;103473.09;7352841;19;20023;-57
2021/12/17 08:14:38;;;;;;;0.00;0.00;;;;;;;10.84;66.36;103487.19;7355664;19;20010;-57
2021/12/17 08:17:28;;;;;;;0.00;0.00;;;;;;;10.85;66.17;103478.50;7362084;19;20070;-59
2021/12/17 08:25:27;;;;;;;0.00;0.00;;;;;;;10.85;66.28;103491.59;7357083;19;20017;-58
2021/12/17 08:28:07;;;;;;;0.10;0.10;;;;;;;10.85;66.39;103499.41;7363027;19;20017;-59
2021/12/17 08:30:40;;;;;;;0.00;0.00;;;;;;;10.84;66.64;103487.19;7361692;19;20017;-59
2021/12/17 08:33:06;;;;;;;0.10;0.10;;;;;;;10.84;66.32;103492.41;7366385;19;20009;-58
2021/12/17 08:35:36;;;;;;;0.00;0.00;;;;;;;10.83;66.31;103490.66;7361828;19;20010;-59
2021/12/17 08:38:05;;;;;;;0.00;0.00;;;;;;;10.79;66.27;103478.34;7366336;19;20010;-59
2021/12/17 08:40:32;;;;;;;0.10;0.10;;;;;;;10.84;66.66;103487.19;7364283;19;20030;-58
2021/12/17 08:42:58;;;;;;;0.05;0.05;;;;;;;10.84;66.66;103487.19;7364435;19;20554;-57
2021/12/17 08:45:24;;;;;;;0.03;0.03;;;;;;;10.82;66.50;103478.44;7361830;19;20020;-56
2021/12/17 08:47:51;;;;;;;0.00;0.00;;;;;;;10.83;66.47;103491.53;7365955;19;20026;-58
2021/12/17 08:50:18;;;;;;;0.00;0.00;;;;;;;10.78;66.31;103479.22;7363425;19;20011;-59
2021/12/17 08:52:44;;;;;;;;;;;;;;;10.88;66.72;103486.41;7361758;19;20006;-58
2021/12/17 08:55:12;;;;;;;0.10;0.10;;;;;;;10.83;66.69;103480.19;7359580;19;20016;-58
2021/12/17 08:57:39;;;;;;;0.10;0.10;;;;;;;10.83;66.41;103485.41;7357121;19;20003;-57
2021/12/17 09:00:08;;;;;;;0.03;0.03;;;;;;;10.83;66.71;103491.53;7367911;19;20006;-58
2021/12/17 09:02:36;;;;;;;0.00;0.00;;;;;;;10.82;66.60;103494.13;7361110;19;20006;-58
2021/12/17 09:05:04;;;;;;;0.05;0.05;;;;;;;10.83;66.68;103496.75;7361836;19;20023;-56
2021/12/17 09:07:31;;;;;;;0.00;0.00;;;;;;;10.81;66.41;103493.25;7362989;19;20017;-57
2021/12/17 09:09:56;;;;;;;0.10;0.10;;;;;;;10.80;66.94;103496.72;7358651;19;20002;-58
2021/12/17 09:12:23;;;;;;;0.05;0.05;;;;;;;10.83;66.48;103501.09;7368726;19;20011;-59
2021/12/17 09:14:48;;;;;;;0.10;0.10;;;;;;;10.83;66.50;103499.38;7364980;19;20012;-58
2021/12/17 09:17:13;;;;;;;0.00;0.00;;;;;;;10.85;66.69;103502.03;7367055;19;20018;-59
2021/12/17 09:19:39;;;;;;;0.00;0.00;;;;;;;10.86;66.85;103506.41;7365840;19;20013;-58
2021/12/17 09:22:04;;;;;;;0.10;0.10;;;;;;;10.82;66.69;103494.13;7360302;19;20014;-58
2021/12/17 09:24:30;;;;;;;0.00;0.00;;;;;;;10.49;66.61;103442.91;7365163;19;20538;-58
2021/12/17 09:26:55;;;;;;;0.10;0.10;;;;;;;10.78;66.73;103487.06;7362478;19;20010;-59
2021/12/17 09:29:21;;;;;;;0.03;0.03;;;;;;;10.89;66.95;103522.13;7365427;19;20073;-57
2021/12/17 09:31:47;;;;;;;0.10;0.10;;;;;;;10.91;66.96;103516.09;7359821;19;20125;-58
2021/12/17 09:34:12;;;;;;;0.00;0.00;;;;;;;10.93;67.02;103516.13;7360451;19;20078;-57
2021/12/17 09:36:37;;;;;;;0.03;0.03;;;;;;;10.89;66.96;103506.44;7367319;19;20015;-59
2021/12/17 09:39:03;;;;;;;0.10;0.10;;;;;;;10.95;67.01;103519.69;7358464;19;20025;-57
2021/12/17 09:41:29;;;;;;;0.10;0.10;;;;;;;10.96;67.19;103510.97;7360834;19;20011;-58
2021/12/17 09:43:55;;;;;;;0.00;0.00;;;;;;;10.97;66.73;103523.19;7367344;19;20019;-58
2021/12/17 09:46:21;;;;;;;0.10;0.10;;;;;;;11.00;66.80;103524.97;7360551;19;20014;-58
2021/12/17 09:48:48;;;;;;;0.08;0.08;;;;;;;11.01;66.92;103517.19;7364330;19;20011;-58
2021/12/17 09:51:15;;;;;;;0.10;0.10;;;;;;;11.02;66.61;103518.06;7354909;19;20014;-58
2021/12/17 09:53:41;;;;;;;0.10;0.10;;;;;;;10.94;66.95;103510.03;7363620;19;20014;-58
2021/12/17 09:56:10;;;;;;;0.00;0.00;;;;;;;11.02;67.13;103524.16;7363713;19;20010;-58
2021/12/17 09:58:35;;;;;;;0.00;0.00;;;;;;;11.03;67.02;103520.69;7364085;19;20116;-58
2021/12/17 10:01:01;;;;;;;0.00;0.00;;;;;;;11.06;66.91;103525.13;7365593;19;20035;-58
2021/12/17 10:03:27;;;;;;;0.00;0.00;;;;;;;11.05;67.08;103524.25;7367893;19;20011;-58
2021/12/17 10:05:53;;;;;;;0.00;0.00;;;;;;;11.05;66.74;103524.25;7360250;19;20026;-58
2021/12/17 10:08:21;;;;;;;0.00;0.00;;;;;;;11.08;66.77;103529.53;7366400;19;20021;-58
2021/12/17 10:10:48;;;;;;;0.00;0.00;;;;;;;11.09;66.90;103526.03;7360176;19;20010;-57
2021/12/17 10:13:28;;;;;;;0.08;0.08;;;;;;;11.13;66.91;103527.88;7365893;19;20022;-59
2021/12/17 10:16:01;;;;;;;0.00;0.00;;;;;;;11.13;67.07;103533.13;7363334;19;20034;-59
2021/12/17 10:18:41;;;;;;;0.00;0.00;;;;;;;11.14;66.79;103524.41;7364654;19;20014;-59
2021/12/17 10:21:09;;;;;;;0.10;0.10;;;;;;;11.13;67.16;103527.88;7362734;19;20018;-58
2021/12/17 10:23:36;;;;;;;0.10;0.10;;;;;;;11.10;66.92;103520.00;7366786;19;20014;-57
2021/12/17 10:26:03;;;;;;;0.10;0.10;;;;;;;11.13;67.14;103533.13;7361625;19;20115;-58
2021/12/17 10:28:30;;;;;;;0.00;0.00;;;;;;;11.12;67.02;103523.50;7363825;19;20556;-57
2021/12/17 10:30:56;;;;;;;0.10;0.10;;;;;;;11.13;67.17;103524.38;7361119;19;20010;-58
2021/12/17 10:33:25;;;;;;;0.10;0.10;;;;;;;11.13;67.03;103517.41;7354536;19;20014;-59
2021/12/17 10:35:52;;;;;;;0.05;0.05;;;;;;;11.13;67.46;103522.66;7366559;19;20013;-59
2021/12/17 10:38:22;;;;;;;0.10;0.10;;;;;;;11.14;67.32;103519.19;7361675;19;21116;-57
2021/12/17 10:40:57;;;;;;;0.00;0.00;;;;;;;11.16;67.42;103527.97;7365192;19;20022;-59
2021/12/17 10:43:28;;;;;;;0.00;0.00;;;;;;;11.17;67.24;103524.47;7360498;19;20007;-59
2021/12/17 10:46:20;;;;;;;0.10;0.10;;;;;;;11.20;67.07;103533.22;7359384;19;20017;-59
2021/12/17 10:51:16;;;;;;;0.00;0.00;;;;;;;11.24;67.30;103529.81;7356306;19;20105;-57
2021/12/17 10:53:54;;;;;;;0.00;0.00;;;;;;;11.26;66.84;103528.16;7359523;19;20033;-59
2021/12/17 10:56:30;;;;;;;0.08;0.08;;;;;;;11.25;66.90;103531.59;7365191;19;20047;-59
2021/12/17 10:59:03;;;;;;;0.00;0.00;;;;;;;11.26;67.16;103530.75;7359400;19;20007;-59
2021/12/17 11:01:33;;;;;;;0.00;0.00;;;;;;;11.26;67.19;103529.03;7360589;19;20027;-58
2021/12/17 11:04:10;;;;;;;0.00;0.00;;;;;;;11.26;66.88;103522.91;7364806;19;20034;-59
2021/12/17 11:07:06;;;;;;;0.00;0.00;;;;;;;11.29;66.83;103533.41;7358857;19;20006;-59
2021/12/17 11:09:41;;;;;;;0.00;0.00;;;;;;;11.27;67.07;103529.91;7262215;19;2004278;-58
2021/12/17 11:12:27;;;;;;;0.10;0.10;;;;;;;11.29;67.04;103529.06;7355836;19;20014;-59
2021/12/17 11:14:53;;;;;;;0.00;0.00;;;;;;;11.26;66.96;103529.03;7366600;19;20025;-58
2021/12/17 11:17:23;;;;;;;0.00;0.00;;;;;;;11.28;67.12;103531.66;7357976;19;21655;-58
2021/12/17 11:19:54;;;;;;;0.00;0.00;;;;;;;11.30;66.94;103535.19;7358670;19;20392;-58
2021/12/17 11:22:23;;;;;;;0.10;0.10;;;;;;;11.28;66.72;103532.53;7364473;19;20078;-58
2021/12/17 11:24:49;;;;;;;0.00;0.00;;;;;;;11.31;67.20;103531.72;7358660;19;20014;-57
2021/12/17 11:27:15;;;;;;;0.05;0.05;;;;;;;11.23;66.63;103512.38;7357520;19;20805;-58
2021/12/17 11:29:41;;;;;;;0.10;0.10;;;;;;;11.32;67.19;103515.19;7352014;19;20007;-59
2021/12/17 11:32:07;;;;;;;0.00;0.00;;;;;;;11.26;67.15;103507.22;7362828;19;20009;-58
2021/12/17 11:34:34;;;;;;;0.10;0.10;;;;;;;11.35;66.65;103528.31;7360780;19;20042;-59
2021/12/17 11:37:03;;;;;;;0.00;0.00;;;;;;;11.31;66.92;103511.69;7360924;19;20020;-59
2021/12/17 11:39:35;;;;;;;0.10;0.10;;;;;;;11.33;66.92;103516.94;7356845;19;20011;-58
2021/12/17 11:42:33;;;;;;;0.08;0.08;;;;;;;11.37;66.59;103517.03;7360074;19;20011;-59
2021/12/17 11:47:46;;;;;;;0.08;0.08;;;;;;;11.36;66.76;103524.84;7366044;19;20021;-58
2021/12/17 11:50:16;;;;;;;0.08;0.08;;;;;;;11.35;66.49;103529.22;7357339;19;20007;-59
2021/12/17 11:52:44;;;;;;;0.00;0.00;;;;;;;11.36;66.91;103520.50;7362001;19;20045;-59
2021/12/17 11:55:33;;;;;;;0.00;0.00;;;;;;;11.38;67.10;103515.28;7361956;19;20006;-59
2021/12/17 11:58:01;;;;;;;0.00;0.00;;;;;;;11.37;66.74;103524.00;7370719;19;20097;-58
2021/12/17 12:00:41;;;;;;;0.00;0.00;;;;;;;11.41;67.02;103523.22;7361023;19;20003;-59
2021/12/17 12:03:22;;;;;;;0.08;0.08;;;;;;;11.41;66.57;103528.44;7361309;19;20006;-59
2021/12/17 12:05:50;;;;;;;0.00;0.00;;;;;;;11.30;66.96;103519.47;7366426;19;20023;-59
2021/12/17 12:08:38;;;;;;;0.00;0.00;;;;;;;11.42;67.03;103527.59;7368608;19;20009;-59
2021/12/17 12:11:12;;;;;;;0.00;0.00;;;;;;;11.41;66.60;103528.44;7360933;19;20006;-58
2021/12/17 12:13:37;;;;;;;0.00;0.00;;;;;;;11.39;66.72;103525.78;7365788;19;20010;-59
2021/12/17 12:16:05;;;;;;;0.00;0.00;;;;;;;11.41;66.65;103538.91;7362185;19;20035;-57
2021/12/17 12:18:43;;;;;;;0.03;0.03;;;;;;;11.41;66.50;103526.69;7361193;19;20006;-58
2021/12/17 12:21:11;;;;;;;0.10;0.10;;;;;;;11.25;66.51;103508.91;7360097;19;20013;-57
2021/12/17 12:23:40;;;;;;;0.10;0.10;;;;;;;11.39;66.19;103522.28;7364997;19;20039;-59
2021/12/17 12:26:08;;;;;;;0.10;0.10;;;;;;;11.38;66.33;103528.38;7369650;19;20023;-58
2021/12/17 12:28:46;;;;;;;0.10;0.10;;;;;;;11.41;66.68;103524.09;7368667;19;20031;-59
2021/12/17 12:31:17;;;;;;;0.10;0.10;;;;;;;11.39;66.31;103525.78;7366237;19;20367;-58
2021/12/17 12:37:14;;;;;;;0.05;0.05;;;;;;;11.36;66.49;103525.75;7370051;19;20007;-59
2021/12/17 12:39:54;;;;;;;0.00;0.00;;;;;;;11.33;65.93;103519.56;7264418;19;2004511;-58
2021/12/17 12:42:25;;;;;;;0.00;0.00;;;;;;;11.33;66.01;103519.56;7364058;19;20423;-58
2021/12/17 12:44:52;;;;;;;0.10;0.10;;;;;;;11.30;66.41;103529.94;7366136;19;20013;-57
2021/12/17 12:47:20;;;;;;;0.00;0.00;;;;;;;11.31;66.33;103521.28;7367989;19;21450;-56
2021/12/17 12:50:04;;;;;;;0.00;0.00;;;;;;;11.32;66.71;103517.78;7368098;19;20360;-58
2021/12/17 12:52:30;;;;;;;0.00;0.00;;;;;;;11.24;66.29;103503.66;7368735;19;20014;-58
2021/12/17 12:55:01;;;;;;;0.10;0.10;;;;;;;11.30;66.47;103514.25;7369595;19;20081;-58
2021/12/17 12:57:30;;;;;;;0.00;0.00;;;;;;;11.28;66.36;103505.50;7368148;19;20452;-59
2021/12/17 12:59:59;;;;;;;0.00;0.00;;;;;;;11.26;66.33;103502.88;7370348;19;20035;-59
2021/12/17 13:02:26;;;;;;;0.00;0.00;;;;;;;11.28;66.25;103510.72;7361919;19;20018;-59
2021/12/17 13:04:54;;;;;;;0.03;0.03;;;;;;;11.27;66.54;103503.75;7366884;19;20013;-58
2021/12/17 13:07:41;;;;;;;0.00;0.00;;;;;;;11.30;66.27;103506.41;7364036;19;20026;-59
2021/12/17 13:10:16;;;;;;;0.00;0.00;;;;;;;11.24;66.63;103504.56;7369039;19;20023;-59
2021/12/17 13:12:49;;;;;;;0.10;0.10;;;;;;;11.28;66.57;103500.28;7368114;19;20011;-58
2021/12/17 13:15:20;;;;;;;0.00;0.00;;;;;;;11.26;66.51;103500.25;7366681;19;20103;-59
2021/12/17 13:20:55;;;;;;;0.03;0.03;;;;;;;11.26;66.24;103494.13;7266536;19;2004418;-59
2021/12/17 13:23:22;;;;;;;0.00;0.00;;;;;;;11.24;65.99;103477.50;7362344;19;20006;-59
2021/12/17 13:26:19;;;;;;;0.03;0.03;;;;;;;11.21;66.18;103472.25;7362941;19;20747;-59
2021/12/17 13:28:45;;;;;;;;;;;;;;;11.24;66.34;103482.75;7264418;19;2004202;-58
2021/12/17 13:31:11;;;;;;;0.00;0.00;;;;;;;11.14;66.68;103466.00;7365167;19;19919;-58
2021/12/17 13:33:38;;;;;;;0.00;0.00;;;;;;;11.17;66.45;103472.19;7365513;19;20022;-58
2021/12/17 13:36:12;;;;;;;0.00;0.00;;;;;;;11.20;66.51;103468.72;7367140;19;20034;-59
2021/12/17 13:38:41;;;;;;;0.00;0.00;;;;;;;11.19;66.76;103466.97;7364457;19;20014;-57
2021/12/17 13:41:10;;;;;;;0.00;0.00;;;;;;;11.17;66.58;103461.72;7367774;19;20019;-58
2021/12/17 13:43:39;;;;;;;0.00;0.00;;;;;;;11.22;66.45;103467.03;7363506;19;20018;-57
2021/12/17 13:46:05;;;;;;;0.08;0.08;;;;;;;11.21;66.24;103472.25;7363792;19;20010;-58
2021/12/17 13:48:32;;;;;;;0.10;0.10;;;;;;;11.23;66.27;103471.41;7363942;19;20018;-57
2021/12/17 13:50:57;;;;;;;0.10;0.10;;;;;;;11.21;66.46;103462.66;7357592;19;20021;-58
2021/12/17 13:53:24;;;;;;;0.00;0.00;;;;;;;11.19;66.60;103461.72;7363780;19;20018;-58
2021/12/17 13:55:50;;;;;;;0.00;0.00;;;;;;;11.19;66.83;103464.34;7360474;19;20026;-58
2021/12/17 13:58:22;;;;;;;0.00;0.00;;;;;;;11.20;66.41;103454.75;7356868;19;20739;-59
2021/12/17 14:00:57;;;;;;;0.00;0.00;;;;;;;11.22;66.91;103466.16;7365681;19;20103;-58
2021/12/17 14:03:28;;;;;;;0.05;0.05;;;;;;;11.18;66.87;103455.63;7362959;19;20010;-58
2021/12/17 14:06:01;;;;;;;0.10;0.10;;;;;;;11.20;66.85;103460.00;7364494;19;20006;-58
2021/12/17 14:08:27;;;;;;;0.10;0.10;;;;;;;11.18;66.63;103457.34;7359478;19;20003;-58
2021/12/17 14:10:56;;;;;;;0.00;0.00;;;;;;;11.17;66.51;103448.63;7360464;19;20042;-59
2021/12/17 14:13:24;;;;;;;0.10;0.10;;;;;;;11.17;66.38;103461.72;7367128;19;20006;-58
2021/12/17 14:15:52;;;;;;;0.10;0.10;;;;;;;11.14;65.99;103450.31;7357952;19;20442;-58
2021/12/17 14:18:20;;;;;;;0.00;0.00;;;;;;;11.14;66.56;103455.53;7366489;19;20015;-58
2021/12/17 14:20:56;;;;;;;0.00;0.00;;;;;;;11.14;66.71;103461.63;7361832;19;20031;-58
2021/12/17 14:23:27;;;;;;;0.00;0.00;;;;;;;11.12;66.45;103468.59;7363304;19;20006;-57